createdAt,value
2022-11-24T00:01:35.832Z,7.40
2022-11-24T00:03:43.222Z,7.40
2022-11-24T00:05:48.731Z,7.42
2022-11-24T00:07:53.661Z,7.47
2022-11-24T00:09:58.438Z,7.48
2022-11-24T00:12:03.927Z,7.49
2022-11-24T00:14:09.464Z,7.41
2022-11-24T00:16:15.898Z,7.37
2022-11-24T00:18:20.807Z,7.35
2022-11-24T00:20:28.211Z,7.32
2022-11-24T00:22:33.753Z,7.22
2022-11-24T00:24:38.604Z,7.08
2022-11-24T00:26:43.412Z,7.11
2022-11-24T00:28:49.976Z,7.05
2022-11-24T00:30:54.818Z,7.14
2022-11-24T00:32:59.678Z,7.13
2022-11-24T00:35:04.434Z,7.16
2022-11-24T00:37:11.781Z,7.19
2022-11-24T00:39:20.076Z,7.22
2022-11-24T00:41:25.773Z,7.18
2022-11-24T00:43:30.730Z,7.21
2022-11-24T00:45:35.588Z,7.18
2022-11-24T00:47:40.407Z,7.20
2022-11-24T00:49:47.951Z,7.20
2022-11-24T00:51:52.729Z,7.21
2022-11-24T00:54:00.174Z,7.23
2022-11-24T00:56:05.280Z,7.18
2022-11-24T00:58:10.109Z,7.17
2022-11-24T01:00:15.946Z,7.16
2022-11-24T01:02:20.844Z,7.17
2022-11-24T01:04:25.757Z,7.15
2022-11-24T01:06:32.809Z,7.21
2022-11-24T01:08:39.146Z,7.17
2022-11-24T01:10:46.794Z,7.23
2022-11-24T01:12:51.639Z,7.29
2022-11-24T01:14:56.403Z,7.31
2022-11-24T01:17:01.245Z,7.35
2022-11-24T01:19:06.538Z,7.33
2022-11-24T01:21:11.360Z,7.33
2022-11-24T01:23:18.024Z,7.35
2022-11-24T01:25:22.792Z,7.39
2022-11-24T01:27:30.161Z,7.46
2022-11-24T01:29:34.999Z,7.41
2022-11-24T01:31:39.798Z,7.45
2022-11-24T01:33:44.578Z,7.47
2022-11-24T01:35:49.409Z,7.49
2022-11-24T01:37:56.896Z,7.52
2022-11-24T01:40:02.044Z,7.49
2022-11-24T01:42:07.040Z,7.57
2022-11-24T01:44:28.704Z,7.61
2022-11-24T01:46:40.511Z,7.67
2022-11-24T01:48:48.682Z,7.67
2022-11-24T01:50:58.052Z,7.70
2022-11-24T01:53:02.896Z,7.68
2022-11-24T01:55:12.468Z,7.67
2022-11-24T01:57:23.008Z,7.71
2022-11-24T01:59:31.177Z,7.72
2022-11-24T02:01:36.055Z,7.72
2022-11-24T02:03:46.803Z,7.73
2022-11-24T02:05:59.223Z,7.81
2022-11-24T02:08:05.866Z,7.89
2022-11-24T02:10:16.147Z,7.98
2022-11-24T02:12:20.986Z,8.02
2022-11-24T02:14:27.670Z,8.06
2022-11-24T02:16:37.129Z,8.13
2022-11-24T02:18:43.075Z,8.17
2022-11-24T02:20:47.848Z,8.16
2022-11-24T02:22:57.799Z,8.18
2022-11-24T02:25:09.664Z,8.14
2022-11-24T02:27:17.047Z,8.13
2022-11-24T02:29:22.554Z,8.09
2022-11-24T02:31:27.360Z,8.06
2022-11-24T02:33:32.625Z,8.09
2022-11-24T02:35:37.467Z,7.98
2022-11-24T02:37:42.556Z,7.99
2022-11-24T02:39:47.070Z,7.92
2022-11-24T02:41:56.516Z,7.89
2022-11-24T02:44:05.075Z,7.87
2022-11-24T02:46:10.981Z,7.89
2022-11-24T02:48:17.913Z,7.85
2022-11-24T02:50:22.656Z,7.82
2022-11-24T02:52:27.504Z,7.82
2022-11-24T02:54:32.792Z,7.83
2022-11-24T02:56:37.810Z,7.77
2022-11-24T02:58:42.823Z,7.78
2022-11-24T03:00:50.388Z,7.81
2022-11-24T03:02:55.180Z,7.83
2022-11-24T03:05:00.028Z,7.87
2022-11-24T03:07:04.853Z,7.84
2022-11-24T03:09:09.848Z,7.87
2022-11-24T03:11:14.605Z,7.87
2022-11-24T03:13:19.451Z,7.90
2022-11-24T03:15:24.670Z,7.89
2022-11-24T03:17:31.834Z,7.82
2022-11-24T03:19:36.758Z,7.83
2022-11-24T03:21:41.549Z,7.89
2022-11-24T03:23:46.317Z,7.88
2022-11-24T03:25:51.090Z,7.98
2022-11-24T03:27:55.851Z,8.03
2022-11-24T03:30:00.626Z,8.04
2022-11-24T03:32:05.618Z,8.01
2022-11-24T03:34:13.550Z,7.97
2022-11-24T03:36:18.301Z,8.00
2022-11-24T03:38:23.108Z,8.04
2022-11-24T03:40:27.822Z,8.13
2022-11-24T03:42:32.655Z,8.15
2022-11-24T03:44:37.466Z,8.20
2022-11-24T03:46:45.338Z,8.22
2022-11-24T03:48:50.304Z,8.20
2022-11-24T03:51:03.179Z,8.26
2022-11-24T03:53:08.031Z,8.22
2022-11-24T03:55:12.974Z,8.21
2022-11-24T03:57:17.707Z,8.19
2022-11-24T03:59:22.525Z,8.21
2022-11-24T04:01:27.321Z,8.20
2022-11-24T04:03:32.433Z,8.16
2022-11-24T04:05:38.568Z,8.14
2022-11-24T04:07:46.062Z,8.18
2022-11-24T04:09:50.838Z,8.17
2022-11-24T04:12:10.682Z,8.15
2022-11-24T04:14:15.624Z,8.11
2022-11-24T04:16:20.449Z,8.16
2022-11-24T04:18:25.513Z,8.19
2022-11-24T04:20:30.418Z,8.26
2022-11-24T04:22:35.801Z,8.26
2022-11-24T04:24:43.159Z,8.25
2022-11-24T04:26:48.021Z,8.27
2022-11-24T04:28:52.865Z,8.31
2022-11-24T04:30:57.667Z,8.36
2022-11-24T04:33:02.678Z,8.45
2022-11-24T04:35:08.187Z,8.53
2022-11-24T04:37:13.274Z,8.59
2022-11-24T04:39:19.510Z,8.65
2022-11-24T04:41:33.535Z,8.67
2022-11-24T04:43:40.745Z,8.68
2022-11-24T04:45:46.088Z,8.72
2022-11-24T04:47:50.893Z,8.66
2022-11-24T04:49:55.850Z,8.64
2022-11-24T04:52:01.157Z,8.61
2022-11-24T04:54:05.670Z,8.58
2022-11-24T04:56:11.116Z,8.52
2022-11-24T04:58:18.612Z,8.45
2022-11-24T05:00:23.735Z,8.39
2022-11-24T05:02:28.516Z,8.29
2022-11-24T05:04:33.633Z,8.24
2022-11-24T05:06:38.738Z,8.28
2022-11-24T05:08:43.554Z,8.27
2022-11-24T05:10:45.838Z,8.30
2022-11-24T05:12:57.237Z,8.27
2022-11-24T05:15:06.655Z,8.25
2022-11-24T05:17:11.546Z,8.17
2022-11-24T05:19:16.821Z,8.15
2022-11-24T05:21:21.332Z,8.12
2022-11-24T05:23:26.143Z,8.06
2022-11-24T05:25:30.871Z,8.05
2022-11-24T05:27:35.749Z,8.03
2022-11-24T05:29:40.503Z,8.08
2022-11-24T05:31:47.952Z,8.08
2022-11-24T05:33:52.876Z,8.12
2022-11-24T05:35:58.083Z,8.11
2022-11-24T05:38:02.834Z,8.07
2022-11-24T05:40:09.253Z,8.09
2022-11-24T05:42:26.500Z,8.09
2022-11-24T05:44:31.425Z,8.05
2022-11-24T05:46:36.421Z,8.07
2022-11-24T05:48:43.811Z,8.08
2022-11-24T05:50:48.564Z,8.06
2022-11-24T05:52:53.803Z,8.05
2022-11-24T05:54:58.639Z,8.03
2022-11-24T05:57:03.454Z,7.99
2022-11-24T05:59:10.149Z,7.95
2022-11-24T06:01:15.362Z,7.96
2022-11-24T06:03:20.138Z,7.96
2022-11-24T06:05:27.658Z,7.96
2022-11-24T06:07:32.460Z,7.92
2022-11-24T06:09:39.134Z,7.90
2022-11-24T06:11:43.926Z,7.88
2022-11-24T06:13:50.229Z,7.87
2022-11-24T06:15:55.287Z,7.85
2022-11-24T06:18:00.245Z,7.83
2022-11-24T06:20:05.082Z,7.82
2022-11-24T06:22:12.734Z,7.81
2022-11-24T06:24:17.569Z,7.79
2022-11-24T06:26:22.395Z,7.77
2022-11-24T06:28:27.194Z,7.79
2022-11-24T06:30:32.030Z,7.83
2022-11-24T06:32:36.788Z,7.86
2022-11-24T06:34:41.620Z,7.90
2022-11-24T06:36:47.083Z,7.94
2022-11-24T06:38:54.455Z,7.97
2022-11-24T06:41:03.696Z,8.03
2022-11-24T06:43:08.591Z,8.09
2022-11-24T06:45:13.882Z,8.11
2022-11-24T06:47:18.707Z,8.16
2022-11-24T06:49:23.606Z,8.22
2022-11-24T06:51:29.197Z,8.24
2022-11-24T06:53:37.827Z,8.30
2022-11-24T06:55:46.137Z,8.35
2022-11-24T06:57:50.983Z,8.41
2022-11-24T06:59:55.850Z,8.45
2022-11-24T07:02:00.594Z,8.49
2022-11-24T07:04:05.386Z,8.51
2022-11-24T07:06:10.171Z,8.55
2022-11-24T07:08:17.962Z,8.57
2022-11-24T07:10:22.992Z,8.61
2022-11-24T07:12:30.531Z,8.65
2022-11-24T07:14:35.783Z,8.68
2022-11-24T07:16:41.849Z,8.65
2022-11-24T07:18:47.251Z,8.62
2022-11-24T07:20:52.092Z,8.60
2022-11-24T07:22:59.074Z,8.56
2022-11-24T07:25:07.336Z,8.48
2022-11-24T07:27:13.185Z,8.46
2022-11-24T07:29:20.648Z,8.44
2022-11-24T07:31:27.678Z,8.41
2022-11-24T07:33:32.493Z,8.37
2022-11-24T07:35:37.230Z,8.36
2022-11-24T07:37:42.114Z,8.34
2022-11-24T07:39:46.917Z,8.31
2022-11-24T07:41:51.675Z,8.25
2022-11-24T07:43:56.440Z,8.26
2022-11-24T07:46:06.538Z,8.30
2022-11-24T07:48:12.017Z,8.30
2022-11-24T07:50:20.769Z,8.35
2022-11-24T07:52:26.889Z,8.38
2022-11-24T07:54:32.358Z,8.41
2022-11-24T07:56:37.380Z,8.48
2022-11-24T07:58:45.967Z,8.55
2022-11-24T08:00:53.228Z,8.64
2022-11-24T08:03:00.712Z,8.67
2022-11-24T08:05:05.539Z,8.71
2022-11-24T08:07:10.437Z,8.75
2022-11-24T08:09:15.335Z,8.79
2022-11-24T08:11:21.057Z,8.84
2022-11-24T08:13:25.894Z,8.81
2022-11-24T08:15:30.977Z,8.88
2022-11-24T08:17:35.742Z,8.91
2022-11-24T08:19:43.175Z,8.86
2022-11-24T08:21:47.905Z,8.84
2022-11-24T08:23:52.923Z,8.90
2022-11-24T08:26:00.710Z,8.96
2022-11-24T08:28:07.075Z,9.00
2022-11-24T08:30:15.813Z,8.98
2022-11-24T08:32:22.605Z,8.95
2022-11-24T08:34:28.325Z,9.01
2022-11-24T08:36:36.852Z,9.07
2022-11-24T08:38:41.978Z,9.12
2022-11-24T08:40:46.573Z,9.10
2022-11-24T08:42:51.435Z,9.11
2022-11-24T08:44:58.995Z,9.09
2022-11-24T08:47:07.124Z,9.16
2022-11-24T08:49:13.693Z,9.18
2022-11-24T08:51:20.293Z,9.19
2022-11-24T08:53:27.764Z,9.18
2022-11-24T08:55:32.554Z,9.27
2022-11-24T08:57:37.371Z,9.33
2022-11-24T08:59:42.122Z,9.36
2022-11-24T09:01:47.160Z,9.41
2022-11-24T09:03:55.696Z,9.39
2022-11-24T09:06:00.744Z,9.36
2022-11-24T09:08:05.551Z,9.34
2022-11-24T09:10:13.918Z,9.32
2022-11-24T09:12:21.622Z,9.26
2022-11-24T09:14:26.424Z,9.31
2022-11-24T09:16:32.426Z,9.32
2022-11-24T09:18:37.578Z,9.35
2022-11-24T09:20:43.225Z,9.41
2022-11-24T09:22:48.043Z,9.48
2022-11-24T09:24:52.820Z,9.55
2022-11-24T09:27:00.153Z,9.57
2022-11-24T09:29:08.044Z,9.58
2022-11-24T09:31:14.963Z,9.57
2022-11-24T09:33:19.766Z,9.46
2022-11-24T09:35:26.646Z,9.41
2022-11-24T09:37:32.868Z,9.45
2022-11-24T09:39:37.842Z,9.50
2022-11-24T09:41:53.107Z,9.45
2022-11-24T09:44:09.141Z,9.28
2022-11-24T09:46:21.522Z,9.25
2022-11-24T09:48:32.927Z,9.37
2022-11-24T09:50:39.227Z,9.37
2022-11-24T09:52:50.906Z,9.24
2022-11-24T09:55:02.798Z,9.17
2022-11-24T09:57:08.739Z,9.21
2022-11-24T09:59:19.285Z,9.26
2022-11-24T10:01:29.163Z,9.30
2022-11-24T10:03:37.291Z,9.22
2022-11-24T10:05:46.055Z,9.25
2022-11-24T10:08:03.065Z,9.35
2022-11-24T10:10:11.732Z,9.44
2022-11-24T10:12:30.437Z,9.52
2022-11-24T10:15:08.966Z,9.46
2022-11-24T10:17:27.739Z,9.44
2022-11-24T10:19:43.826Z,9.39
2022-11-24T10:22:02.410Z,9.41
2022-11-24T10:24:23.521Z,9.29
2022-11-24T10:26:37.750Z,9.32
2022-11-24T10:28:46.395Z,9.29
2022-11-24T10:31:13.832Z,9.14
2022-11-24T10:33:28.785Z,9.16
2022-11-24T10:35:45.561Z,9.13
2022-11-24T10:38:00.971Z,9.10
2022-11-24T10:40:40.511Z,9.01
2022-11-24T10:42:40.409Z,8.94
2022-11-24T10:44:46.057Z,8.98
2022-11-24T10:46:53.471Z,8.97
2022-11-24T10:49:01.542Z,8.94
2022-11-24T10:51:27.826Z,8.97
2022-11-24T10:53:33.520Z,8.94
2022-11-24T10:56:06.899Z,8.93
2022-11-24T10:58:19.270Z,8.96
2022-11-24T11:00:37.153Z,8.98
2022-11-24T11:02:44.724Z,9.00
2022-11-24T11:04:49.517Z,8.93
2022-11-24T11:06:54.278Z,8.96
2022-11-24T11:09:20.503Z,9.12
2022-11-24T11:11:25.940Z,9.11
2022-11-24T11:13:32.979Z,9.10
2022-11-24T11:15:38.256Z,9.22
2022-11-24T11:17:50.437Z,9.36
2022-11-24T11:20:01.985Z,9.49
2022-11-24T11:22:16.427Z,9.49
2022-11-24T11:24:21.861Z,9.56
2022-11-24T11:26:39.899Z,9.70
2022-11-24T11:28:44.715Z,9.69
2022-11-24T11:31:18.585Z,9.41
2022-11-24T11:36:01.127Z,9.38
2022-11-24T11:38:07.862Z,9.40
2022-11-24T11:40:19.141Z,9.39
2022-11-24T11:43:00.859Z,9.53
2022-11-24T11:45:00.605Z,9.43
2022-11-24T11:47:16.436Z,9.48
2022-11-24T11:49:24.054Z,9.49
2022-11-24T11:51:41.991Z,9.43
2022-11-24T11:53:51.943Z,9.44
2022-11-24T11:56:04.876Z,9.48
2022-11-24T11:58:40.568Z,9.56
2022-11-24T12:00:51.407Z,9.44
2022-11-24T12:03:28.998Z,9.33
2022-11-24T12:05:49.932Z,9.35
2022-11-24T12:08:10.941Z,9.53
2022-11-24T12:10:26.714Z,9.47
2022-11-24T12:12:48.322Z,9.57
2022-11-24T12:15:09.131Z,9.61
2022-11-24T12:17:24.524Z,9.52
2022-11-24T12:19:44.461Z,9.48
2022-11-24T12:22:03.816Z,9.65
2022-11-24T12:24:19.216Z,9.66
2022-11-24T12:26:34.870Z,9.56
2022-11-24T12:28:54.421Z,9.69
2022-11-24T12:31:08.552Z,9.75
2022-11-24T12:33:37.414Z,9.59
2022-11-24T12:35:46.203Z,9.46
2022-11-24T12:38:04.110Z,9.45
2022-11-24T12:40:17.527Z,9.39
2022-11-24T12:42:33.908Z,9.42
2022-11-24T12:45:03.078Z,9.34
2022-11-24T12:47:16.878Z,9.41
2022-11-24T12:49:33.460Z,9.36
2022-11-24T12:51:43.934Z,9.32
2022-11-24T12:53:56.244Z,9.24
2022-11-24T12:56:07.820Z,9.25
2022-11-24T12:58:19.841Z,9.20
2022-11-24T13:00:26.647Z,9.20
2022-11-24T13:02:42.877Z,9.28
2022-11-24T13:04:54.269Z,9.32
2022-11-24T13:07:04.003Z,9.34
2022-11-24T13:09:18.947Z,9.25
2022-11-24T13:11:42.214Z,9.28
2022-11-24T13:14:01.285Z,9.27
2022-11-24T13:16:35.587Z,9.20
2022-11-24T13:18:49.747Z,9.07
2022-11-24T13:20:54.574Z,9.00
2022-11-24T13:23:01.849Z,8.98
2022-11-24T13:25:18.886Z,9.00
2022-11-24T13:27:31.821Z,8.96
2022-11-24T13:29:38.955Z,8.99
2022-11-24T13:31:43.895Z,8.93
2022-11-24T13:33:49.146Z,8.93
2022-11-24T13:36:08.628Z,8.95
2022-11-24T13:38:43.891Z,8.99
2022-11-24T13:41:13.486Z,9.05
2022-11-24T13:43:25.322Z,9.11
2022-11-24T13:45:52.031Z,9.12
2022-11-24T13:47:56.769Z,9.12
2022-11-24T13:50:02.648Z,9.18
2022-11-24T13:52:49.114Z,9.25
2022-11-24T13:54:55.151Z,9.35
2022-11-24T13:57:43.725Z,9.34
2022-11-24T13:59:51.284Z,9.36
2022-11-24T14:02:00.933Z,9.40
2022-11-24T14:04:35.732Z,9.41
2022-11-24T14:06:48.046Z,9.30
2022-11-24T14:08:52.911Z,9.24
2022-11-24T14:10:59.348Z,9.19
2022-11-24T14:13:27.868Z,9.19
2022-11-24T14:15:36.575Z,9.15
2022-11-24T14:17:41.531Z,9.23
2022-11-24T14:19:49.037Z,9.20
2022-11-24T14:21:53.809Z,9.27
2022-11-24T14:24:01.283Z,9.30
2022-11-24T14:26:06.060Z,9.30
2022-11-24T14:28:25.526Z,9.28
2022-11-24T14:30:30.493Z,9.23
2022-11-24T14:32:37.975Z,9.19
2022-11-24T14:34:42.786Z,9.26
2022-11-24T14:36:48.006Z,9.13
2022-11-24T14:38:52.790Z,9.18
2022-11-24T14:40:58.740Z,9.21
2022-11-24T14:43:03.668Z,9.29
2022-11-24T14:45:09.063Z,9.30
2022-11-24T14:47:28.778Z,9.21
2022-11-24T14:49:44.463Z,9.29
2022-11-24T14:51:54.864Z,9.34
2022-11-24T14:54:03.038Z,9.36
2022-11-24T14:56:25.028Z,9.38
2022-11-24T14:58:40.531Z,9.29
2022-11-24T15:00:47.126Z,9.26
2022-11-24T15:02:55.725Z,9.21
2022-11-24T15:05:04.098Z,9.15
2022-11-24T15:07:19.093Z,9.10
2022-11-24T15:09:34.274Z,9.04
2022-11-24T15:11:39.145Z,9.04
2022-11-24T15:13:56.011Z,9.04
2022-11-24T15:16:04.533Z,9.01
2022-11-24T15:18:23.322Z,9.02
2022-11-24T15:20:36.654Z,9.00
2022-11-24T15:22:43.648Z,8.96
2022-11-24T15:24:52.327Z,8.97
2022-11-24T15:27:03.369Z,8.95
2022-11-24T15:29:08.153Z,8.89
2022-11-24T15:31:14.912Z,8.80
2022-11-24T15:33:21.800Z,8.82
2022-11-24T15:35:32.274Z,8.84
2022-11-24T15:37:37.994Z,8.79
2022-11-24T15:39:42.808Z,8.76
2022-11-24T15:41:47.674Z,8.76
2022-11-24T15:43:58.867Z,8.60
2022-11-24T15:46:04.997Z,8.58
2022-11-24T15:48:14.805Z,8.56
2022-11-24T15:50:23.304Z,8.49
2022-11-24T15:52:30.762Z,8.48
2022-11-24T15:54:36.567Z,8.49
2022-11-24T15:56:42.296Z,8.50
2022-11-24T15:58:47.175Z,8.45
2022-11-24T16:00:53.831Z,8.41
2022-11-24T16:03:02.070Z,8.38
2022-11-24T16:05:18.752Z,8.34
2022-11-24T16:07:23.755Z,8.29
2022-11-24T16:09:31.246Z,8.30
2022-11-24T16:11:36.073Z,8.29
2022-11-24T16:13:40.931Z,8.31
2022-11-24T16:15:46.066Z,8.28
2022-11-24T16:17:52.856Z,8.32
2022-11-24T16:20:00.742Z,8.34
2022-11-24T16:22:06.445Z,8.37
2022-11-24T16:24:11.805Z,8.36
2022-11-24T16:26:19.436Z,8.38
2022-11-24T16:28:24.372Z,8.38
2022-11-24T16:30:29.277Z,8.37
2022-11-24T16:32:34.163Z,8.36
2022-11-24T16:34:38.914Z,8.35
2022-11-24T16:36:43.744Z,8.35
2022-11-24T16:38:48.914Z,8.37
2022-11-24T16:40:59.405Z,8.37
2022-11-24T16:43:07.259Z,8.39
2022-11-24T16:45:16.863Z,8.42
2022-11-24T16:47:24.062Z,8.44
2022-11-24T16:49:28.964Z,8.48
2022-11-24T16:51:35.107Z,8.54
2022-11-24T16:53:41.929Z,8.56
2022-11-24T16:55:46.961Z,8.57
2022-11-24T16:57:52.948Z,8.61
2022-11-24T17:00:00.515Z,8.66
2022-11-24T17:02:05.518Z,8.66
2022-11-24T17:04:12.804Z,8.67
2022-11-24T17:06:19.646Z,8.67
2022-11-24T17:08:24.649Z,8.66
2022-11-24T17:10:30.004Z,8.68
2022-11-24T17:12:35.882Z,8.65
2022-11-24T17:14:40.995Z,8.66
2022-11-24T17:16:56.084Z,8.70
2022-11-24T17:19:01.413Z,8.73
2022-11-24T17:21:09.797Z,8.71
2022-11-24T17:23:16.132Z,8.69
2022-11-24T17:25:22.288Z,8.69
2022-11-24T17:27:27.432Z,8.74
2022-11-24T17:29:32.974Z,8.75
2022-11-24T17:31:40.127Z,8.74
2022-11-24T17:33:53.132Z,8.75
2022-11-24T17:35:58.094Z,8.70
2022-11-24T17:38:03.146Z,8.70
2022-11-24T17:42:34.715Z,8.60
2022-11-24T17:44:39.609Z,8.52
2022-11-24T17:46:46.071Z,8.45
2022-11-24T17:48:54.220Z,8.36
2022-11-24T17:51:03.497Z,8.32
2022-11-24T17:53:08.307Z,8.25
2022-11-24T17:55:15.344Z,8.21
2022-11-24T17:57:20.140Z,8.18
2022-11-24T17:59:25.051Z,8.12
2022-11-24T18:01:31.624Z,8.09
2022-11-24T18:03:36.532Z,8.06
2022-11-24T18:05:44.058Z,8.02
2022-11-24T18:07:48.864Z,7.99
2022-11-24T18:09:53.691Z,7.93
2022-11-24T18:11:58.507Z,7.90
2022-11-24T18:14:05.493Z,7.83
2022-11-24T18:16:12.739Z,7.79
2022-11-24T18:18:17.908Z,7.75
2022-11-24T18:20:22.759Z,7.74
2022-11-24T18:22:57.844Z,7.73
2022-11-24T18:24:55.337Z,7.69
2022-11-24T18:27:00.153Z,7.67
2022-11-24T18:29:05.003Z,7.68
2022-11-24T18:31:14.326Z,7.68
2022-11-24T18:33:19.918Z,7.67
2022-11-24T18:35:24.685Z,7.66
2022-11-24T18:37:33.893Z,7.62
2022-11-24T18:39:42.097Z,7.60
2022-11-24T18:41:47.246Z,7.60
2022-11-24T18:43:51.816Z,7.60
2022-11-24T18:45:57.037Z,7.64
2022-11-24T18:48:01.658Z,7.64
2022-11-24T18:50:07.515Z,7.68
2022-11-24T18:52:12.591Z,7.74
2022-11-24T18:54:20.002Z,7.79
2022-11-24T18:56:25.201Z,7.83
2022-11-24T18:58:31.514Z,7.90
2022-11-24T19:00:36.302Z,7.93
2022-11-24T19:02:41.418Z,7.91
2022-11-24T19:04:46.380Z,7.92
2022-11-24T19:06:51.167Z,7.91
2022-11-24T19:08:57.159Z,7.90
2022-11-24T19:11:05.229Z,7.91
2022-11-24T19:13:10.402Z,7.92
2022-11-24T19:15:17.652Z,7.94
2022-11-24T19:17:22.413Z,7.97
2022-11-24T19:19:28.981Z,7.99
2022-11-24T19:21:35.537Z,8.00
2022-11-24T19:23:40.906Z,8.03
2022-11-24T19:25:48.196Z,8.04
2022-11-24T19:27:55.664Z,8.02
2022-11-24T19:30:00.560Z,7.98
2022-11-24T19:32:05.387Z,7.87
2022-11-24T19:34:10.745Z,7.86
2022-11-24T19:36:17.695Z,7.85
2022-11-24T19:38:25.645Z,7.83
2022-11-24T19:40:34.501Z,7.78
2022-11-24T19:42:42.096Z,7.75
2022-11-24T19:44:54.760Z,7.71
2022-11-24T19:47:01.304Z,7.66
2022-11-24T19:49:08.346Z,7.60
2022-11-24T19:51:15.508Z,7.54
2022-11-24T19:53:20.244Z,7.49
2022-11-24T19:55:25.052Z,7.47
2022-11-24T19:57:29.826Z,7.55
2022-11-24T19:59:34.705Z,7.62
2022-11-24T20:01:43.829Z,7.70
2022-11-24T20:03:50.463Z,7.73
2022-11-24T20:05:58.082Z,7.76
2022-11-24T20:08:02.973Z,7.79
2022-11-24T20:10:09.614Z,7.82
2022-11-24T20:12:14.970Z,7.84
2022-11-24T20:14:20.460Z,7.78
2022-11-24T20:16:29.853Z,7.74
2022-11-24T20:18:41.738Z,7.71
2022-11-24T20:20:47.160Z,7.68
2022-11-24T20:22:51.932Z,7.68
2022-11-24T20:24:56.783Z,7.71
2022-11-24T20:27:03.152Z,7.72
2022-11-24T20:29:09.960Z,7.75
2022-11-24T20:31:16.897Z,7.76
2022-11-24T20:33:21.741Z,7.75
2022-11-24T20:35:29.129Z,7.78
2022-11-24T20:37:33.967Z,7.82
2022-11-24T20:39:38.727Z,7.82
2022-11-24T20:41:43.586Z,7.79
2022-11-24T20:43:49.588Z,7.72
2022-11-24T20:45:54.438Z,7.68
2022-11-24T20:47:59.360Z,7.58
2022-11-24T20:50:04.190Z,7.52
2022-11-24T20:52:17.549Z,7.45
2022-11-24T20:54:22.456Z,7.36
2022-11-24T20:56:29.397Z,7.30
2022-11-24T20:58:35.569Z,7.25
2022-11-24T21:00:40.394Z,7.21
2022-11-24T21:02:45.656Z,7.15
2022-11-24T21:04:53.191Z,7.03
2022-11-24T21:06:58.125Z,6.97
2022-11-24T21:09:06.499Z,6.90
2022-11-24T21:11:13.724Z,6.86
2022-11-24T21:13:18.512Z,6.82
2022-11-24T21:15:23.811Z,6.80
2022-11-24T21:17:28.590Z,6.78
2022-11-24T21:19:33.457Z,6.76
2022-11-24T21:21:39.652Z,6.73
2022-11-24T21:23:45.136Z,6.71
2022-11-24T21:25:52.559Z,6.70
2022-11-24T21:27:57.377Z,6.68
2022-11-24T21:30:02.278Z,6.64
2022-11-24T21:32:07.447Z,6.61
2022-11-24T21:34:13.016Z,6.58
2022-11-24T21:36:19.811Z,6.54
2022-11-24T21:38:24.598Z,6.52
2022-11-24T21:40:29.450Z,6.51
2022-11-24T21:42:36.852Z,6.51
2022-11-24T21:44:41.685Z,6.48
2022-11-24T21:46:52.616Z,6.44
2022-11-24T21:49:00.694Z,6.44
2022-11-24T21:51:08.086Z,6.44
2022-11-24T21:53:12.900Z,6.45
2022-11-24T21:55:18.230Z,6.45
2022-11-24T21:57:23.262Z,6.43
2022-11-24T21:59:30.618Z,6.42
2022-11-24T22:01:35.497Z,6.39
2022-11-24T22:03:40.428Z,6.37
2022-11-24T22:05:54.938Z,6.32
2022-11-24T22:08:00.027Z,6.24
2022-11-24T22:10:04.939Z,6.15
2022-11-24T22:12:10.162Z,6.13
2022-11-24T22:14:14.797Z,6.09
2022-11-24T22:16:23.497Z,6.09
2022-11-24T22:18:28.398Z,6.05
2022-11-24T22:20:33.267Z,6.03
2022-11-24T22:22:38.033Z,6.00
2022-11-24T22:24:42.866Z,6.00
2022-11-24T22:26:47.700Z,6.01
2022-11-24T22:28:52.972Z,6.00
2022-11-24T22:30:57.792Z,6.00
2022-11-24T22:33:05.122Z,6.03
2022-11-24T22:35:11.364Z,6.00
2022-11-24T22:37:17.512Z,5.99
2022-11-24T22:39:22.312Z,6.01
2022-11-24T22:41:27.783Z,6.00
2022-11-24T22:43:34.451Z,5.96
2022-11-24T22:45:39.248Z,5.96
2022-11-24T22:47:44.024Z,5.91
2022-11-24T22:49:51.371Z,5.86
2022-11-24T22:51:56.197Z,5.82
2022-11-24T22:54:02.744Z,5.79
2022-11-24T22:56:09.733Z,5.78
2022-11-24T22:58:14.499Z,5.79
2022-11-24T23:00:20.600Z,5.78
2022-11-24T23:02:25.384Z,5.78
2022-11-24T23:04:30.276Z,5.73
2022-11-24T23:06:38.815Z,5.67
2022-11-24T23:08:44.276Z,5.66
2022-11-24T23:10:49.081Z,5.64
2022-11-24T23:12:54.741Z,5.64
2022-11-24T23:14:59.566Z,5.66
2022-11-24T23:17:04.380Z,5.65
2022-11-24T23:19:12.670Z,5.64
2022-11-24T23:21:18.126Z,5.63
2022-11-24T23:23:25.493Z,5.65
2022-11-24T23:25:30.347Z,5.64
2022-11-24T23:27:35.133Z,5.66
2022-11-24T23:29:39.956Z,5.67
2022-11-24T23:31:44.772Z,5.68
2022-11-24T23:33:49.784Z,5.67
2022-11-24T23:35:54.602Z,5.70
2022-11-24T23:38:07.554Z,5.66
2022-11-24T23:40:15.849Z,5.68
2022-11-24T23:42:21.601Z,5.68
2022-11-24T23:44:26.349Z,5.67
2022-11-24T23:46:31.515Z,5.66
2022-11-24T23:48:36.567Z,5.63
2022-11-24T23:50:41.510Z,5.60
2022-11-24T23:52:46.304Z,5.59
2022-11-24T23:54:51.085Z,5.57
2022-11-24T23:56:58.432Z,5.54
2022-11-24T23:59:03.806Z,5.53
